createdAt,value
2018-03-16T00:00:40.420Z,99664.09
2018-03-16T00:03:07.812Z,99675.63
2018-03-16T00:05:35.222Z,99668.34
2018-03-16T00:08:02.666Z,99671.17
2018-03-16T00:10:30.059Z,99676.19
2018-03-16T00:12:57.445Z,99675.34
2018-03-16T00:15:24.867Z,99682.69
2018-03-16T00:17:52.251Z,99662.69
2018-03-16T00:20:19.682Z,99673.23
2018-03-16T00:22:47.071Z,99673.44
2018-03-16T00:25:14.478Z,99674.75
2018-03-16T00:27:41.943Z,99669.69
2018-03-16T00:30:09.355Z,99667.57
2018-03-16T00:32:36.859Z,99665.70
2018-03-16T00:35:04.247Z,99683.23
2018-03-16T00:37:31.667Z,99678.48
2018-03-16T00:39:59.053Z,99678.48
2018-03-16T00:42:26.545Z,99678.00
2018-03-16T00:44:53.934Z,99682.92
2018-03-16T00:47:21.326Z,99681.25
2018-03-16T00:49:48.834Z,99682.83
2018-03-16T00:52:16.230Z,99681.01
2018-03-16T00:54:43.686Z,99673.48
2018-03-16T00:57:11.086Z,99680.33
2018-03-16T00:59:38.494Z,99688.48
2018-03-16T01:02:05.951Z,99680.28
2018-03-16T01:04:33.354Z,99684.66
2018-03-16T01:07:00.748Z,99687.64
2018-03-16T01:09:28.248Z,99677.62
2018-03-16T01:11:55.641Z,99681.13
2018-03-16T01:14:23.034Z,99675.12
2018-03-16T01:16:50.489Z,99672.47
2018-03-16T01:19:17.875Z,99680.86
2018-03-16T01:21:45.608Z,99669.95
2018-03-16T01:24:13.020Z,99682.18
2018-03-16T01:26:40.887Z,99668.55
2018-03-16T01:29:08.384Z,99681.19
2018-03-16T01:31:35.842Z,99676.27
2018-03-16T01:34:03.301Z,99673.41
2018-03-16T01:36:30.752Z,99670.42
2018-03-16T01:38:58.150Z,99676.54
2018-03-16T01:41:25.551Z,99672.72
2018-03-16T01:43:52.958Z,99677.20
2018-03-16T01:46:20.375Z,99679.83
2018-03-16T01:48:47.780Z,99675.64
2018-03-16T01:51:15.182Z,99685.81
2018-03-16T01:53:42.575Z,99684.05
2018-03-16T01:56:09.966Z,99684.25
2018-03-16T01:58:37.357Z,99685.05
2018-03-16T02:01:05.402Z,99684.16
2018-03-16T02:03:32.878Z,99698.08
2018-03-16T02:06:00.331Z,99693.34
2018-03-16T02:08:27.787Z,99684.62
2018-03-16T02:10:55.242Z,99686.08
2018-03-16T02:13:22.633Z,99688.54
2018-03-16T02:15:50.029Z,99690.69
2018-03-16T02:18:17.416Z,99690.88
2018-03-16T02:20:44.815Z,99690.52
2018-03-16T02:23:12.243Z,99695.91
2018-03-16T02:25:39.691Z,99694.80
2018-03-16T02:28:07.090Z,99698.39
2018-03-16T02:30:34.475Z,99694.42
2018-03-16T02:33:01.868Z,99703.81
2018-03-16T02:35:29.314Z,99691.45
2018-03-16T02:37:56.716Z,99693.73
2018-03-16T02:40:24.096Z,99696.28
2018-03-16T02:42:51.498Z,99689.98
2018-03-16T02:45:18.890Z,99693.06
2018-03-16T02:47:46.283Z,99701.67
2018-03-16T02:50:13.684Z,99698.08
2018-03-16T02:52:41.083Z,99708.92
2018-03-16T02:55:08.476Z,99706.91
2018-03-16T02:57:35.868Z,99714.34
2018-03-16T03:00:03.962Z,99714.73
2018-03-16T03:02:31.349Z,99713.16
2018-03-16T03:04:58.745Z,99717.13
2018-03-16T03:07:26.130Z,99712.33
2018-03-16T03:09:53.539Z,99731.39
2018-03-16T03:12:20.970Z,99726.50
2018-03-16T03:14:48.414Z,99723.30
2018-03-16T03:17:15.810Z,99719.77
2018-03-16T03:19:43.204Z,99724.75
2018-03-16T03:22:10.687Z,99721.95
2018-03-16T03:24:38.147Z,99722.19
2018-03-16T03:27:05.547Z,99724.63
2018-03-16T03:29:32.963Z,99731.69
2018-03-16T03:32:00.354Z,99729.08
2018-03-16T03:34:27.745Z,99727.86
2018-03-16T03:36:55.914Z,99743.02
2018-03-16T03:39:23.310Z,99734.17
2018-03-16T03:41:50.710Z,99741.05
2018-03-16T03:44:18.094Z,99742.55
2018-03-16T03:46:45.490Z,99728.38
2018-03-16T03:49:12.875Z,99741.93
2018-03-16T03:51:40.266Z,99733.50
2018-03-16T03:54:07.654Z,99737.66
2018-03-16T03:56:35.078Z,99733.19
2018-03-16T03:59:02.505Z,99736.88
2018-03-16T04:01:29.903Z,99736.78
2018-03-16T04:03:57.430Z,99733.34
2018-03-16T04:06:24.922Z,99733.41
2018-03-16T04:08:52.310Z,99734.02
2018-03-16T04:11:19.706Z,99735.23
2018-03-16T04:13:47.090Z,99738.83
2018-03-16T04:16:14.480Z,99737.75
2018-03-16T04:18:41.876Z,99735.90
2018-03-16T04:21:09.255Z,99724.50
2018-03-16T04:23:36.674Z,99736.83
2018-03-16T04:26:04.069Z,99730.49
2018-03-16T04:28:31.537Z,99729.81
2018-03-16T04:30:58.922Z,99732.97
2018-03-16T04:33:26.314Z,99734.40
2018-03-16T04:35:53.702Z,99733.72
2018-03-16T04:38:21.103Z,99737.11
2018-03-16T04:40:48.507Z,99738.51
2018-03-16T04:43:15.911Z,99740.83
2018-03-16T04:45:43.297Z,99743.72
2018-03-16T04:48:11.695Z,99741.95
2018-03-16T04:50:39.147Z,99750.00
2018-03-16T04:53:06.534Z,99757.39
2018-03-16T04:55:33.922Z,99755.44
2018-03-16T04:58:01.310Z,99753.12
2018-03-16T05:00:28.698Z,99745.67
2018-03-16T05:02:56.085Z,99742.92
2018-03-16T05:05:24.163Z,99764.90
2018-03-16T05:07:51.562Z,99757.59
2018-03-16T05:10:19.054Z,99759.50
2018-03-16T05:12:46.498Z,99739.39
2018-03-16T05:15:13.923Z,99755.13
2018-03-16T05:17:41.419Z,99752.52
2018-03-16T05:20:08.911Z,99748.61
2018-03-16T05:22:36.330Z,99752.42
2018-03-16T05:25:03.791Z,99750.47
2018-03-16T05:27:31.198Z,99762.63
2018-03-16T05:29:58.586Z,99754.29
2018-03-16T05:32:25.993Z,99763.13
2018-03-16T05:34:54.287Z,99772.05
2018-03-16T05:37:21.679Z,99770.62
2018-03-16T05:39:49.142Z,99776.81
2018-03-16T05:42:16.599Z,99773.50
2018-03-16T05:44:43.983Z,99778.58
2018-03-16T05:47:11.370Z,99782.27
2018-03-16T05:49:38.759Z,99780.25
2018-03-16T05:52:06.244Z,99788.72
2018-03-16T05:54:33.678Z,99787.14
2018-03-16T05:57:01.139Z,99785.17
2018-03-16T05:59:28.528Z,99783.50
2018-03-16T06:01:55.919Z,99786.95
2018-03-16T06:04:23.301Z,99777.25
2018-03-16T06:06:50.698Z,99776.84
2018-03-16T06:09:18.115Z,99784.23
2018-03-16T06:11:45.571Z,99792.28
2018-03-16T06:14:13.019Z,99795.67
2018-03-16T06:16:40.414Z,99796.14
2018-03-16T06:19:07.806Z,99795.50
2018-03-16T06:21:35.289Z,99794.98
2018-03-16T06:24:02.674Z,99797.45
2018-03-16T06:26:30.099Z,99803.30
2018-03-16T06:28:57.499Z,99809.77
2018-03-16T06:31:24.911Z,99819.02
2018-03-16T06:33:52.356Z,99815.99
2018-03-16T06:36:19.690Z,99813.89
2018-03-16T06:38:47.089Z,99815.03
2018-03-16T06:41:14.471Z,99828.85
2018-03-16T06:43:41.882Z,99819.23
2018-03-16T06:46:09.267Z,99820.83
2018-03-16T06:48:36.686Z,99827.24
2018-03-16T06:51:04.146Z,99837.58
2018-03-16T06:53:31.610Z,99832.52
2018-03-16T06:55:58.993Z,99842.48
2018-03-16T06:58:26.392Z,99841.55
2018-03-16T07:00:53.784Z,99841.20
2018-03-16T07:03:21.240Z,99847.75
2018-03-16T07:05:48.571Z,99851.16
2018-03-16T07:08:16.037Z,99850.86
2018-03-16T07:10:43.419Z,99852.41
2018-03-16T07:13:10.860Z,99858.14
2018-03-16T07:15:38.243Z,99862.80
2018-03-16T07:18:05.643Z,99867.50
2018-03-16T07:20:33.028Z,99874.94
2018-03-16T07:23:00.467Z,99869.06
2018-03-16T07:25:27.854Z,99878.00
2018-03-16T07:27:55.246Z,99886.24
2018-03-16T07:30:22.722Z,99880.61
2018-03-16T07:32:50.147Z,99883.92
2018-03-16T07:35:17.538Z,99889.72
2018-03-16T07:37:44.930Z,99894.94
2018-03-16T07:40:12.349Z,99897.79
2018-03-16T07:42:39.806Z,99899.81
2018-03-16T07:45:07.190Z,99897.70
2018-03-16T07:47:34.635Z,99899.09
2018-03-16T07:50:01.979Z,99903.88
2018-03-16T07:52:29.378Z,99911.39
2018-03-16T07:54:56.787Z,99914.71
2018-03-16T07:57:24.182Z,99911.98
2018-03-16T07:59:51.573Z,99918.23
2018-03-16T08:02:19.024Z,99918.95
2018-03-16T08:04:46.407Z,99924.48
2018-03-16T08:07:13.792Z,99922.80
2018-03-16T08:09:41.211Z,99925.88
2018-03-16T08:12:08.599Z,99928.56
2018-03-16T08:14:35.991Z,99926.50
2018-03-16T08:17:03.475Z,99933.78
2018-03-16T08:19:30.934Z,99928.56
2018-03-16T08:21:58.393Z,99935.62
2018-03-16T08:24:25.774Z,99932.09
2018-03-16T08:26:53.223Z,99935.58
2018-03-16T08:29:20.618Z,99943.14
2018-03-16T08:31:48.110Z,99951.53
2018-03-16T08:34:15.503Z,99946.53
2018-03-16T08:36:42.909Z,99948.80
2018-03-16T08:39:10.427Z,99943.97
2018-03-16T08:41:37.786Z,99958.71
2018-03-16T08:44:05.186Z,99949.17
2018-03-16T08:46:32.611Z,99949.23
2018-03-16T08:49:00.098Z,99948.13
2018-03-16T08:51:27.735Z,99953.92
2018-03-16T08:53:55.130Z,99953.86
2018-03-16T08:56:22.571Z,99956.05
2018-03-16T08:58:49.966Z,99955.60
2018-03-16T09:01:17.365Z,99956.40
2018-03-16T09:03:44.758Z,99965.84
2018-03-16T09:06:12.139Z,99962.51
2018-03-16T09:08:39.534Z,99969.87
2018-03-16T09:11:06.928Z,99974.27
2018-03-16T09:13:35.124Z,99974.51
2018-03-16T09:16:02.507Z,99976.80
2018-03-16T09:18:29.898Z,99984.50
2018-03-16T09:20:57.283Z,99989.58
2018-03-16T09:23:24.709Z,99981.20
2018-03-16T09:25:52.118Z,99984.91
2018-03-16T09:28:19.519Z,99975.67
2018-03-16T09:30:46.928Z,99983.28
2018-03-16T09:33:14.326Z,99982.47
2018-03-16T09:35:41.787Z,99982.97
2018-03-16T09:38:09.243Z,99987.03
2018-03-16T09:40:36.699Z,99996.59
2018-03-16T09:43:04.199Z,99986.83
2018-03-16T09:45:31.547Z,99990.12
2018-03-16T09:47:58.939Z,99996.17
2018-03-16T09:50:26.371Z,99995.61
2018-03-16T09:52:53.770Z,100005.75
2018-03-16T09:58:17.855Z,100014.38
2018-03-16T10:00:45.283Z,100006.53
2018-03-16T10:03:12.694Z,100010.86
2018-03-16T10:05:40.078Z,100010.95
2018-03-16T10:08:07.546Z,100011.76
2018-03-16T10:10:34.991Z,100014.89
2018-03-16T10:13:02.447Z,100006.13
2018-03-16T10:15:29.910Z,100014.59
2018-03-16T10:17:57.367Z,100018.59
2018-03-16T10:20:24.844Z,100014.06
2018-03-16T10:22:52.323Z,100015.89
2018-03-16T10:25:19.718Z,100024.04
2018-03-16T10:27:47.195Z,100022.81
2018-03-16T10:30:14.601Z,100028.89
2018-03-16T10:32:41.982Z,100031.49
2018-03-16T10:35:09.396Z,100029.34
2018-03-16T10:37:36.784Z,100029.94
2018-03-16T10:40:04.262Z,100031.09
2018-03-16T10:42:31.677Z,100020.55
2018-03-16T10:44:59.181Z,100033.45
2018-03-16T10:47:26.569Z,100044.48
2018-03-16T10:49:53.992Z,100042.61
2018-03-16T10:52:21.382Z,100047.06
2018-03-16T10:54:48.803Z,100044.21
2018-03-16T10:57:16.215Z,100049.17
2018-03-16T10:59:43.615Z,100052.61
2018-03-16T11:02:16.722Z,100054.48
2018-03-16T11:04:44.112Z,100058.32
2018-03-16T11:07:18.027Z,100053.69
2018-03-16T11:09:45.457Z,100050.50
2018-03-16T11:12:12.845Z,100057.10
2018-03-16T11:14:40.227Z,100066.45
2018-03-16T11:17:07.619Z,100054.61
2018-03-16T11:19:35.010Z,100060.23
2018-03-16T11:22:02.397Z,100057.31
2018-03-16T11:24:29.787Z,100056.33
2018-03-16T11:26:57.204Z,100055.59
2018-03-16T11:29:24.598Z,100058.06
2018-03-16T11:31:52.007Z,100061.89
2018-03-16T11:34:19.435Z,100072.56
2018-03-16T11:36:46.820Z,100070.70
2018-03-16T11:39:14.285Z,100064.80
2018-03-16T11:41:41.666Z,100083.35
2018-03-16T11:44:09.055Z,100066.48
2018-03-16T11:46:36.439Z,100068.91
2018-03-16T11:49:03.831Z,100067.53
2018-03-16T11:51:31.216Z,100069.29
2018-03-16T11:53:58.616Z,100069.68
2018-03-16T11:56:26.003Z,100057.42
2018-03-16T11:58:53.534Z,100058.52
2018-03-16T12:01:20.967Z,100067.51
2018-03-16T12:03:48.359Z,100076.61
2018-03-16T12:06:15.731Z,100071.63
2018-03-16T12:08:43.137Z,100074.02
2018-03-16T12:11:10.540Z,100084.20
2018-03-16T12:13:37.922Z,100083.78
2018-03-16T12:16:05.397Z,100082.48
2018-03-16T12:18:32.781Z,100083.19
2018-03-16T12:21:00.187Z,100076.47
2018-03-16T12:23:27.576Z,100094.48
2018-03-16T12:25:54.954Z,100089.88
2018-03-16T12:28:22.335Z,100101.05
2018-03-16T12:30:49.730Z,100101.02
2018-03-16T12:33:17.123Z,100103.61
2018-03-16T12:35:44.554Z,100104.69
2018-03-16T12:38:11.939Z,100106.56
2018-03-16T12:40:39.362Z,100105.52
2018-03-16T12:43:06.735Z,100106.11
2018-03-16T12:45:34.177Z,100099.93
2018-03-16T12:48:01.563Z,100110.78
2018-03-16T12:50:28.935Z,100112.12
2018-03-16T12:52:56.428Z,100100.88
2018-03-16T12:55:23.810Z,100101.56
2018-03-16T12:57:51.202Z,100108.00
2018-03-16T13:00:18.590Z,100109.11
2018-03-16T13:02:45.984Z,100113.62
2018-03-16T13:05:13.396Z,100113.13
2018-03-16T13:07:40.782Z,100116.02
2018-03-16T13:10:08.211Z,100114.17
2018-03-16T13:12:35.672Z,100121.06
2018-03-16T13:15:03.061Z,100128.70
2018-03-16T13:17:30.471Z,100116.61
2018-03-16T13:19:57.868Z,100130.34
2018-03-16T13:22:25.287Z,100130.28
2018-03-16T13:24:52.675Z,100129.63
2018-03-16T13:27:20.157Z,100137.19
2018-03-16T13:29:47.613Z,100132.06
2018-03-16T13:32:14.999Z,100134.17
2018-03-16T13:34:42.387Z,100135.47
2018-03-16T13:37:09.775Z,100143.34
2018-03-16T13:39:37.227Z,100137.48
2018-03-16T13:42:04.607Z,100143.62
2018-03-16T13:44:32.002Z,100145.28
2018-03-16T13:46:59.409Z,100146.77
2018-03-16T13:49:26.803Z,100143.70
2018-03-16T13:51:54.191Z,100158.05
2018-03-16T13:54:21.665Z,100153.20
2018-03-16T13:56:49.114Z,100152.20
2018-03-16T13:59:16.500Z,100163.23
2018-03-16T14:01:43.926Z,100153.73
2018-03-16T14:04:11.315Z,100149.25
2018-03-16T14:06:38.734Z,100157.80
2018-03-16T14:09:06.119Z,100167.81
2018-03-16T14:11:33.548Z,100161.80
2018-03-16T14:14:01.060Z,100167.69
2018-03-16T14:16:28.554Z,100165.61
2018-03-16T14:18:56.019Z,100176.59
2018-03-16T14:21:23.478Z,100170.94
2018-03-16T14:23:50.931Z,100179.55
2018-03-16T14:26:18.323Z,100170.97
2018-03-16T14:28:45.707Z,100174.19
2018-03-16T14:31:13.200Z,100186.66
2018-03-16T14:33:40.589Z,100183.93
2018-03-16T14:36:07.975Z,100188.42
2018-03-16T14:38:35.359Z,100183.25
2018-03-16T14:41:02.816Z,100183.28
2018-03-16T14:43:30.199Z,100193.36
2018-03-16T14:45:57.588Z,100188.83
2018-03-16T14:48:25.096Z,100193.06
2018-03-16T14:50:52.535Z,100197.93
2018-03-16T14:53:19.915Z,100202.22
2018-03-16T14:55:47.307Z,100212.91
2018-03-16T14:58:14.687Z,100215.34
2018-03-16T15:00:42.178Z,100211.05
2018-03-16T15:03:09.615Z,100210.14
2018-03-16T15:05:37.071Z,100199.09
2018-03-16T15:08:04.461Z,100209.00
2018-03-16T15:10:31.883Z,100211.41
2018-03-16T15:12:59.263Z,100215.06
2018-03-16T15:15:26.691Z,100211.56
2018-03-16T15:17:54.075Z,100214.58
2018-03-16T15:20:21.471Z,100218.52
2018-03-16T15:22:48.858Z,100209.87
2018-03-16T15:25:16.329Z,100228.06
2018-03-16T15:27:43.707Z,100214.92
2018-03-16T15:30:11.103Z,100226.16
2018-03-16T15:32:38.485Z,100228.13
2018-03-16T15:35:05.894Z,100227.27
2018-03-16T15:37:33.284Z,100226.09
2018-03-16T15:40:00.666Z,100227.97
2018-03-16T15:42:28.067Z,100233.47
2018-03-16T15:44:55.548Z,100232.47
2018-03-16T15:47:23.010Z,100238.52
2018-03-16T15:49:50.390Z,100230.77
2018-03-16T15:52:17.780Z,100227.16
2018-03-16T15:54:45.171Z,100236.73
2018-03-16T15:57:12.579Z,100237.02
2018-03-16T15:59:39.995Z,100239.22
2018-03-16T16:02:07.438Z,100237.08
2018-03-16T16:04:35.898Z,100246.81
2018-03-16T16:07:03.285Z,100243.91
2018-03-16T16:09:30.727Z,100255.17
2018-03-16T16:11:58.135Z,100253.62
2018-03-16T16:14:25.515Z,100252.82
2018-03-16T16:16:52.924Z,100270.97
2018-03-16T16:19:20.350Z,100265.48
2018-03-16T16:21:47.743Z,100267.50
2018-03-16T16:24:15.172Z,100274.77
2018-03-16T16:26:42.652Z,100276.14
2018-03-16T16:29:10.039Z,100279.53
2018-03-16T16:31:37.458Z,100276.88
2018-03-16T16:34:04.843Z,100295.45
2018-03-16T16:36:32.367Z,100287.14
2018-03-16T16:38:59.773Z,100296.14
2018-03-16T16:41:27.159Z,100301.09
2018-03-16T16:43:54.559Z,100298.13
2018-03-16T16:46:21.955Z,100301.59
2018-03-16T16:48:49.343Z,100301.52
2018-03-16T16:51:16.778Z,100312.36
2018-03-16T16:53:44.235Z,100316.99
2018-03-16T16:56:11.627Z,100317.70
2018-03-16T16:58:39.021Z,100319.55
2018-03-16T17:01:06.402Z,100316.02
2018-03-16T17:03:33.851Z,100326.43
2018-03-16T17:06:01.252Z,100326.00
2018-03-16T17:08:28.671Z,100337.00
2018-03-16T17:10:56.070Z,100343.93
2018-03-16T17:13:23.455Z,100343.16
2018-03-16T17:15:50.962Z,100351.38
2018-03-16T17:18:18.349Z,100355.59
2018-03-16T17:20:45.848Z,100356.97
2018-03-16T17:23:13.240Z,100364.25
2018-03-16T17:25:40.662Z,100363.41
2018-03-16T17:28:08.427Z,100361.58
2018-03-16T17:30:35.827Z,100361.18
2018-03-16T17:33:03.220Z,100371.41
2018-03-16T17:35:30.695Z,100364.62
2018-03-16T17:37:58.098Z,100370.01
2018-03-16T17:40:25.487Z,100375.73
2018-03-16T17:42:53.087Z,100383.14
2018-03-16T17:45:20.467Z,100393.52
2018-03-16T17:47:47.858Z,100381.02
2018-03-16T17:50:15.255Z,100378.38
2018-03-16T17:52:42.683Z,100378.75
2018-03-16T17:55:10.075Z,100387.17
2018-03-16T17:57:37.475Z,100386.37
2018-03-16T18:00:04.999Z,100385.30
2018-03-16T18:02:32.391Z,100390.52
2018-03-16T18:04:59.779Z,100394.16
2018-03-16T18:07:27.228Z,100404.47
2018-03-16T18:09:54.622Z,100404.55
2018-03-16T18:12:22.023Z,100407.63
2018-03-16T18:14:49.414Z,100407.33
2018-03-16T18:17:16.809Z,100409.49
2018-03-16T18:19:44.206Z,100414.73
2018-03-16T18:22:11.670Z,100403.16
2018-03-16T18:24:39.114Z,100416.19
2018-03-16T18:27:06.508Z,100409.77
2018-03-16T18:29:33.995Z,100420.23
2018-03-16T18:32:01.400Z,100411.47
2018-03-16T18:34:28.771Z,100421.58
2018-03-16T18:36:56.167Z,100423.80
2018-03-16T18:39:23.553Z,100423.34
2018-03-16T18:41:50.952Z,100433.22
2018-03-16T18:44:18.367Z,100427.59
2018-03-16T18:46:45.770Z,100437.05
2018-03-16T18:49:13.171Z,100447.53
2018-03-16T18:51:40.639Z,100444.95
2018-03-16T18:54:08.027Z,100435.95
2018-03-16T18:56:35.446Z,100436.03
2018-03-16T18:59:02.854Z,100443.69
2018-03-16T19:01:30.247Z,100444.39
2018-03-16T19:03:57.710Z,100444.31
2018-03-16T19:06:25.098Z,100445.52
2018-03-16T19:08:52.523Z,100452.92
2018-03-16T19:11:19.914Z,100453.61
2018-03-16T19:13:47.303Z,100461.95
2018-03-16T19:16:14.829Z,100457.17
2018-03-16T19:18:42.218Z,100452.09
2018-03-16T19:21:09.603Z,100458.95
2018-03-16T19:23:36.995Z,100465.59
2018-03-16T19:26:04.428Z,100458.63
2018-03-16T19:28:31.915Z,100471.56
2018-03-16T19:30:59.299Z,100482.83
2018-03-16T19:33:26.699Z,100462.92
2018-03-16T19:35:54.132Z,100468.22
2018-03-16T19:38:21.536Z,100473.44
2018-03-16T19:40:48.954Z,100472.52
2018-03-16T19:43:16.347Z,100475.97
2018-03-16T19:45:43.734Z,100483.27
2018-03-16T19:48:11.128Z,100474.08
2018-03-16T19:50:38.567Z,100468.02
2018-03-16T19:53:05.963Z,100474.08
2018-03-16T19:55:33.631Z,100472.95
2018-03-16T19:58:01.015Z,100480.31
2018-03-16T20:00:28.407Z,100488.97
2018-03-16T20:02:55.839Z,100485.86
2018-03-16T20:05:23.231Z,100480.33
2018-03-16T20:07:50.651Z,100480.84
2018-03-16T20:10:18.034Z,100496.06
2018-03-16T20:12:45.422Z,100488.77
2018-03-16T20:15:12.879Z,100499.88
2018-03-16T20:17:40.292Z,100511.09
2018-03-16T20:20:07.697Z,100499.56
2018-03-16T20:22:35.127Z,100497.90
2018-03-16T20:25:02.506Z,100500.06
2018-03-16T20:27:29.899Z,100505.70
2018-03-16T20:29:57.299Z,100517.75
2018-03-16T20:32:24.708Z,100504.71
2018-03-16T20:34:52.083Z,100508.63
2018-03-16T20:37:19.487Z,100511.70
2018-03-16T20:39:46.880Z,100519.05
2018-03-16T20:42:14.289Z,100509.17
2018-03-16T20:44:41.733Z,100523.47
2018-03-16T20:47:09.116Z,100529.02
2018-03-16T20:49:36.511Z,100530.31
2018-03-16T20:52:03.915Z,100531.72
2018-03-16T20:54:32.047Z,100539.41
2018-03-16T20:56:59.438Z,100536.67
2018-03-16T20:59:26.879Z,100544.09
2018-03-16T21:01:54.270Z,100540.77
2018-03-16T21:04:21.664Z,100538.63
2018-03-16T21:06:49.057Z,100555.48
2018-03-16T21:09:16.455Z,100549.88
2018-03-16T21:11:43.854Z,100548.63
2018-03-16T21:14:11.248Z,100561.73
2018-03-16T21:16:38.662Z,100571.40
2018-03-16T21:19:06.118Z,100550.30
2018-03-16T21:21:33.571Z,100555.50
2018-03-16T21:24:00.980Z,100556.70
2018-03-16T21:26:28.388Z,100564.58
2018-03-16T21:28:55.834Z,100562.92
2018-03-16T21:31:23.230Z,100566.93
2018-03-16T21:33:50.678Z,100572.04
2018-03-16T21:36:18.141Z,100574.22
2018-03-16T21:38:45.583Z,100577.28
2018-03-16T21:41:12.974Z,100561.34
2018-03-16T21:43:40.375Z,100580.34
2018-03-16T21:46:07.851Z,100587.58
2018-03-16T21:48:35.251Z,100584.58
2018-03-16T21:51:02.644Z,100586.44
2018-03-16T21:53:30.035Z,100586.02
2018-03-16T21:55:57.415Z,100589.90
2018-03-16T21:58:24.815Z,100593.40
2018-03-16T22:00:52.534Z,100596.03
2018-03-16T22:03:19.948Z,100588.67
2018-03-16T22:05:47.363Z,100596.86
2018-03-16T22:08:14.872Z,100596.37
2018-03-16T22:10:42.312Z,100599.89
2018-03-16T22:13:09.709Z,100604.12
2018-03-16T22:15:37.094Z,100600.23
2018-03-16T22:18:04.484Z,100583.85
2018-03-16T22:20:31.875Z,100592.53
2018-03-16T22:22:59.391Z,100594.53
2018-03-16T22:25:26.751Z,100586.86
2018-03-16T22:27:54.148Z,100596.04
2018-03-16T22:30:21.567Z,100600.81
2018-03-16T22:32:49.020Z,100584.02
2018-03-16T22:35:16.434Z,100598.31
2018-03-16T22:37:43.922Z,100597.13
2018-03-16T22:40:11.323Z,100600.52
2018-03-16T22:42:38.712Z,100603.98
2018-03-16T22:45:06.151Z,100600.95
2018-03-16T22:47:33.549Z,100600.57
2018-03-16T22:50:00.938Z,100608.75
2018-03-16T22:52:28.330Z,100606.96
2018-03-16T22:54:55.753Z,100609.98
2018-03-16T22:57:23.139Z,100610.92
2018-03-16T22:59:50.523Z,100602.77
2018-03-16T23:02:17.907Z,100606.16
2018-03-16T23:04:45.302Z,100615.65
2018-03-16T23:07:12.691Z,100608.80
2018-03-16T23:09:40.082Z,100609.71
2018-03-16T23:12:07.463Z,100618.30
2018-03-16T23:14:34.860Z,100616.56
2018-03-16T23:17:02.246Z,100620.83
2018-03-16T23:19:29.635Z,100613.05
2018-03-16T23:21:57.123Z,100624.69
2018-03-16T23:24:24.547Z,100612.62
2018-03-16T23:26:51.938Z,100613.05
2018-03-16T23:29:19.334Z,100618.20
2018-03-16T23:31:46.719Z,100618.18
2018-03-16T23:34:14.197Z,100625.92
2018-03-16T23:36:41.583Z,100633.75
2018-03-16T23:39:08.978Z,100621.34
2018-03-16T23:41:36.425Z,100627.82
2018-03-16T23:44:03.923Z,100629.55
2018-03-16T23:46:31.322Z,100629.95
2018-03-16T23:48:58.711Z,100631.30
2018-03-16T23:51:26.106Z,100625.73
2018-03-16T23:53:53.542Z,100636.08
2018-03-16T23:56:20.927Z,100633.47
2018-03-16T23:58:48.350Z,100639.53
